Home > Products > Valid Products > TAF

000
FTUS44 KAMA 182300
TAFAMA
TAF
KAMA 182325Z 1900/1924 18015G25KT P6SM SCT200
     FM190200 16015KT P6SM FEW050 SCT200
     FM191500 19018G28KT P6SM SCT060=



000
FTUS44 KAMA 182300
TAFDHT
TAF
KDHT 182325Z 1900/1924 19020G30KT P6SM SCT200
     FM190200 18016KT P6SM FEW050 SCT200
     FM191400 20020G28KT P6SM SCT060=



000
FTUS44 KAMA 182300
TAFGUY
TAF
KGUY 182325Z 1900/1924 18015G25KT P6SM SCT200
     FM190200 17018KT P6SM FEW050 SCT200
     FM191400 20018G28KT P6SM SCT060=



000
FTUS44 KAMA 181700
TAFGUY
TAF
KGUY 181738Z 1818/1918 18015G25KT P6SM FEW200
     FM190200 17015KT P6SM SCT150=



000
FTUS44 KAMA 181700
TAFDHT
TAF
KDHT 181738Z 1818/1918 20020G30KT P6SM SCT150
     FM190200 18016KT P6SM SCT150=



000
FTUS44 KAMA 181700
TAFAMA
TAF
KAMA 181738Z 1818/1918 19015G25KT P6SM SCT040
     FM190200 16015KT P6SM SCT150=



000
FTUS44 KAMA 181100
TAFGUY
TAF
KGUY 181140Z 1812/1912 18006KT 6SM BR SCT006
     FM181600 18018G28KT P6SM SKC
     FM190200 17015KT P6SM SCT200=



000
FTUS44 KAMA 181100
TAFAMA
TAF
KAMA 181140Z 1812/1912 16006KT P6SM OVC008
     FM181600 18016G26KT P6SM SKC
     FM190200 16015KT P6SM SCT200=



000
FTUS44 KAMA 181100
TAFDHT
TAF
KDHT 181140Z 1812/1912 19008KT 5SM BR FEW015
      TEMPO 1812/1815 3SM BR BKN010
     FM181600 20018G28KT P6SM SKC
     FM190200 18016KT P6SM SCT200=



000
FTUS44 KAMA 181000 AAC
TAFAMA
TAF AMD
KAMA 181006Z 1810/1906 16006KT P6SM OVC012
     FM181500 18016G26KT P6SM SKC
     FM190200 16016KT P6SM SCT200=



000
FTUS44 KAMA 181000 AAA
TAFGUY
TAF AMD
KGUY 181005Z 1810/1906 18006KT 6SM BR SCT006
     FM181600 19018G28KT P6SM SKC
     FM190200 17015KT P6SM SCT200=



000
FTUS44 KAMA 180900 AAB
TAFDHT
TAF AMD
KDHT 180901Z 1809/1906 19008KT 5SM BR FEW015
     FM181500 20016G26KT P6SM SKC
     FM190200 18016KT P6SM SCT200=



000
FTUS44 KAMA 180900 AAB
TAFAMA
TAF AMD
KAMA 180900Z 1809/1906 15006KT P6SM BKN014
      TEMPO 1810/1814 2SM BR BKN010
     FM181500 18016G26KT P6SM SKC
     FM190200 16016KT P6SM SCT200=



000
FTUS44 KAMA 180800 AAA
TAFAMA
TAF AMD
KAMA 180800Z 1808/1906 15006KT P6SM FEW014
      TEMPO 1810/1814 2SM BR BKN010
     FM181500 18016G26KT P6SM SKC
     FM190200 16016KT P6SM SCT200=



000
FTUS44 KAMA 180700 AAA
TAFDHT
TAF AMD
KDHT 180759Z 1808/1906 19008KT 5SM BR FEW015
      TEMPO 1808/1812 2SM BR BKN012
     FM181500 20017G27KT P6SM SKC
     FM190200 18016KT P6SM SCT200=



000
FTUS44 KAMA 180500
TAFAMA
TAF
KAMA 180520Z 1806/1906 14006KT P6SM SCT040
     FM180800 17006KT 5SM BR SCT006
      TEMPO 1810/1814 1SM BR BKN005
     FM181500 18016G26KT P6SM SKC
     FM190200 16016KT P6SM SCT200=



000
FTUS44 KAMA 180500
TAFDHT
TAF
KDHT 180520Z 1806/1906 15008KT P6SM SCT040
     FM180800 19008KT P6SM FEW005
     FM181500 20017G27KT P6SM SKC
     FM190200 18016KT P6SM SCT200=



000
FTUS44 KAMA 180500
TAFGUY
TAF
KGUY 180520Z 1806/1906 17007KT P6SM SCT040
     FM180800 19006KT 6SM BR SCT006
      TEMPO 1810/1814 2SM BR BKN005
     FM181600 19018G28KT P6SM SKC
     FM190200 17015KT P6SM SCT200=



000
FTUS44 KAMA 180000 AAA
TAFAMA
TAF AMD
KAMA 180024Z 1800/1824 05008KT P6SM BKN040
     FM180200 14006KT P6SM SCT040
     FM180800 17006KT 3SM BR SCT006
      TEMPO 1810/1814 1SM BR BKN005
     FM181500 19016KT P6SM SKC=



000
FTUS44 KAMA 172300
TAFGUY
TAF
KGUY 172322Z 1800/1824 14009KT P6SM SCT040
     FM180800 18008KT 4SM BR SCT006
      TEMPO 1810/1814 2SM BR BKN005
     FM181600 19018KT P6SM SKC=



000
FTUS44 KAMA 172300
TAFDHT
TAF
KDHT 172322Z 1800/1824 11006KT P6SM BKN040
     FM180200 15007KT P6SM SCT040
     FM180800 19008KT P6SM FEW005
     FM181500 21017KT P6SM SKC=



000
FTUS44 KAMA 172300
TAFAMA
TAF
KAMA 172322Z 1800/1824 05008KT P6SM BKN030
     FM180200 14006KT P6SM SCT040
     FM180800 17006KT 3SM BR SCT006
      TEMPO 1810/1814 1SM BR BKN005
     FM181500 19016KT P6SM SKC=



000
FTUS44 KAMA 172000 AAA
TAFAMA
TAF AMD
KAMA 172040Z 1721/1818 05010KT P6SM BKN025
     FM172200 05010KT P6SM SCT025 BKN040
     FM180100 14008KT P6SM SCT040
     FM180800 17008KT 3SM BR SCT006
     FM181500 19015KT P6SM SKC=



000
FTUS44 KAMA 171800 AAA
TAFGUY
TAF AMD
KGUY 171843Z 1719/1818 08010KT P6SM SCT010 BKN035
      TEMPO 1719/1720 BKN010
     FM172000 13009KT P6SM BKN035
     FM180100 15007KT P6SM SCT040
     FM180800 18008KT 4SM BR SCT006
     FM181500 20018KT P6SM SKC=



000
FTUS44 KAMA 171700
TAFAMA
TAF
KAMA 171739Z 1718/1818 04015KT P6SM OVC025
      TEMPO 1718/1719 OVC018
     FM172100 07010KT P6SM BKN040
     FM180100 14008KT P6SM SCT040
     FM180800 17008KT 3SM BR SCT006
     FM181500 19015KT P6SM SKC=



000
FTUS44 KAMA 171700
TAFGUY
TAF
KGUY 171739Z 1718/1818 08010KT P6SM SCT008 BKN035
     FM172000 13009KT P6SM BKN035
     FM180100 15007KT P6SM SCT040
     FM180800 18008KT 4SM BR SCT006
     FM181500 20018KT P6SM SKC=



000
FTUS44 KAMA 171700
TAFDHT
TAF
KDHT 171739Z 1718/1818 07015G24KT P6SM BKN025
      TEMPO 1718/1720 BKN015
     FM172000 11010KT P6SM BKN040
     FM180100 15007KT P6SM SCT040
     FM180800 20008KT P6SM FEW005
     FM181500 21017KT P6SM SKC=



000
FTUS44 KAMA 171600 AAC
TAFGUY
TAF AMD
KGUY 171650Z 1717/1812 05010KT 6SM -SHRA OVC015
      TEMPO 1717/1718 5SM -SHRA BR OVC006
     FM171800 09010KT P6SM BKN040=



000
FTUS44 KAMA 171500 AAC
TAFAMA
TAF AMD
KAMA 171556Z 1716/1812 04016KT P6SM OVC022
      TEMPO 1716/1718 BKN015
     FM172000 07010KT P6SM BKN050
     FM180800 16010KT P6SM BKN040=



000
FTUS44 KAMA 171400 AAB
TAFAMA
TAF AMD
KAMA 171442Z 1715/1812 04016G21KT P6SM OVC022
     FM172000 07010KT P6SM BKN050
     FM180800 16010KT P6SM BKN040=



000
FTUS44 KAMA 171400 AAA
TAFDHT
TAF AMD
KDHT 171425Z 1714/1812 05018G25KT P6SM BKN025
     FM171800 08010KT P6SM BKN035
     FM172100 11010KT P6SM SCT040=



000
FTUS44 KAMA 171400 AAB
TAFGUY
TAF AMD
KGUY 171416Z 1714/1812 05010KT 6SM -SHRA OVC015
      TEMPO 1714/1716 3SM -SHRA BR OVC007
     FM171800 09010KT P6SM BKN040=



000
FTUS44 KAMA 171300 AAA
TAFGUY
TAF AMD
KGUY 171329Z 1713/1812 05014KT 6SM -SHRA OVC025
     FM171800 09010KT P6SM BKN040=



000
FTUS44 KAMA 171200 AAA
TAFAMA
TAF AMD
KAMA 171230Z 1713/1812 03016G21KT P6SM BKN018
     FM172000 07010KT P6SM BKN050
     FM180800 16010KT P6SM BKN040=



000
FTUS44 KAMA 171100
TAFAMA
TAF
KAMA 171134Z 1712/1812 04016KT P6SM BKN080
     FM172000 10010KT P6SM BKN060
     FM180800 16010KT P6SM BKN040=



000
FTUS44 KAMA 171100
TAFDHT
TAF
KDHT 171134Z 1712/1812 02015KT P6SM OVC050
     FM171300 02015KT P6SM BKN025
     FM171600 08010KT P6SM BKN040=



000
FTUS44 KAMA 171100
TAFGUY
TAF
KGUY 171134Z 1712/1812 04015KT P6SM OVC080
     FM171400 05014KT P6SM OVC025
     FM171800 09010KT P6SM BKN040=



000
FTUS44 KAMA 170900 AAB
TAFGUY
TAF AMD
KGUY 170950Z 1710/1806 06014KT P6SM BKN150
     FM171500 04015KT P6SM OVC015
     FM171900 06008KT P6SM SCT030=



000
FTUS44 KAMA 170900 AAB
TAFAMA
TAF AMD
KAMA 170904Z 1709/1806 06016KT P6SM BKN150
     FM171300 02018G26KT P6SM BKN021
     FM171900 06010KT P6SM SCT040=



000
FTUS44 KAMA 170700 AAA
TAFDHT
TAF AMD
KDHT 170756Z 1708/1806 04018KT P6SM BKN150
     FM171300 02012G20KT P6SM BKN015
     FM171900 12010KT P6SM SCT035=



000
FTUS44 KAMA 170600 AAA
TAFAMA
TAF AMD
KAMA 170657Z 1707/1806 06016G26KT P6SM BKN150
     FM171300 02018G26KT P6SM BKN021
     FM171900 06010KT P6SM SCT040=



000
FTUS44 KAMA 170600 AAA
TAFGUY
TAF AMD
KGUY 170657Z 1707/1806 06014KT P6SM BKN150
     FM171000 02020G28KT 5SM -SHRA BR OVC015
     FM171500 04015KT P6SM OVC015
     FM171900 06008KT P6SM SCT030=



000
FTUS44 KAMA 170500
TAFAMA
TAF
KAMA 170520Z 1706/1806 04018G26KT P6SM BKN150
     FM171300 02018G26KT P6SM BKN021
     FM171900 06010KT P6SM SCT040=



000
FTUS44 KAMA 170500
TAFGUY
TAF
KGUY 170520Z 1706/1806 04015G25KT P6SM BKN150
     FM171000 02020G28KT 5SM -SHRA BR OVC015
     FM171500 04015KT P6SM OVC015
     FM171900 06008KT P6SM SCT030=



000
FTUS44 KAMA 170500
TAFDHT
TAF
KDHT 170520Z 1706/1806 04025G33KT P6SM BKN150
     FM171300 02012G20KT P6SM BKN015
     FM171900 12010KT P6SM SCT035=



000
FTUS44 KAMA 170000 CCA
TAFDHT
TAF COR
KDHT 170011Z 1700/1724 04025G35KT P6SM BKN150
     FM171000 02022G30KT P6SM BKN015
     FM171600 03014KT P6SM SCT035=



000
FTUS44 KAMA 170000 CCA
TAFAMA
TAF COR
KAMA 170011Z 1700/1724 06015G25KT P6SM BKN150
     FM170300 04020G30KT P6SM OVC150
     FM171300 02018G26KT P6SM BKN018
     FM171900 04010KT P6SM SCT050=



000
FTUS44 KAMA 170000 CCA
TAFGUY
TAF COR
KGUY 170011Z 1700/1724 04015G25KT P6SM BKN150
     FM170900 02020G28KT 5SM -SHRA BR OVC015
     FM171500 03015KT P6SM OVC015
     FM172000 06008KT P6SM SCT030=



000
FTUS44 KAMA 170000 RRA
TAFAMA
TAF
KAMA 170009Z 1700/1800 06015G25KT P6SM BKN150
     FM170300 04020G30KT P6SM OVC150
     FM171300 02018G26KT P6SM BKN018
     FM171900 04010KT P6SM SCT050=



000
FTUS44 KAMA 170000 RRA
TAFGUY
TAF
KGUY 170009Z 1700/1800 04015G25KT P6SM BKN150
     FM170900 02020G28KT 5SM -SHRA BR OVC015
     FM171500 03015KT P6SM OVC015
     FM172000 06008KT P6SM SCT030=



000
FTUS44 KAMA 170000 RRA
TAFDHT
TAF
KDHT 170009Z 1700/1800 04025G35KT P6SM BKN150
     FM171000 02022G30KT P6SM BKN015
     FM171600 03014KT P6SM SCT035=



000
FTUS44 KAMA 162200 AAB
TAFAMA
TAF AMD
KAMA 162259Z 1623/1718 06015G22KT P6SM BKN250
     FM170100 04020G28KT P6SM BKN250
     FM171200 02018G26KT P6SM BKN025=



000
FTUS44 KAMA 161900 AAA
TAFDHT
TAF AMD
KDHT 161931Z 1620/1718 05018G25KT P6SM BKN250
     FM170100 03024G32KT P6SM BKN200
     FM171000 02022G30KT P6SM BKN015=



000
FTUS44 KAMA 161900 AAA
TAFAMA
TAF AMD
KAMA 161929Z 1619/1718 05010KT P6SM BKN250
     FM170100 04020G28KT P6SM BKN250
     FM171200 02018G26KT P6SM BKN025=



000
FTUS44 KAMA 161700
TAFGUY
TAF
KGUY 161720Z 1618/1718 02023G30KT P6SM BKN250
     FM170900 02021G28KT 5SM -SHRA BR OVC015
     FM171500 03015KT P6SM OVC015=



000
FTUS44 KAMA 161700
TAFDHT
TAF
KDHT 161720Z 1618/1718 02026G34KT P6SM BKN250
     FM171000 02022G30KT P6SM BKN015=



000
FTUS44 KAMA 161700
TAFAMA
TAF
KAMA 161720Z 1618/1718 03020G29KT P6SM BKN250
     FM171200 02020G28KT P6SM BKN025=



000
FTUS44 KAMA 161100 RRA
TAFDHT
TAF
KDHT 161145Z 1612/1712 25010KT P6SM BKN300
     FM161500 35016G22KT P6SM SCT300
     FM161800 04018G26KT P6SM SCT150
     FM170000 05025G35KT P6SM OVC120
     FM170600 01025G35KT P6SM SCT030 OVC070=



000
FTUS44 KAMA 161100 RRA
TAFAMA
TAF
KAMA 161145Z 1612/1712 22016G23KT P6SM BKN300
     FM161900 06013KT P6SM SCT150
     FM170000 06021G29KT P6SM OVC150
     FM170700 03019G28KT P6SM SCT040 OVC090=



000
FTUS44 KAMA 161100 RRA
TAFGUY
TAF
KGUY 161145Z 1612/1712 24014KT P6SM BKN300
     FM161500 35017G25KT P6SM SCT300
     FM161800 02018G26KT P6SM BKN150
     FM170000 04017G25KT P6SM OVC100
     FM170600 02019G28KT 6SM -SHRA BR OVC035=



000
FTUS44 KAMA 160500
TAFGUY
TAF
KGUY 160520Z 1606/1706 18018G25KT P6SM SCT250
     FM161400 34019G25KT P6SM SCT250
     FM161900 03020G28KT P6SM OVC150=



000
FTUS44 KAMA 160500
TAFAMA
TAF
KAMA 160520Z 1606/1706 18018G25KT P6SM SCT250
     FM161400 22022G30KT P6SM SCT250
     FM161900 07010KT P6SM SCT150
     FM170000 08018G25KT P6SM OVC150=



000
FTUS44 KAMA 160500
TAFDHT
TAF
KDHT 160520Z 1606/1706 19018KT P6SM SCT250
     FM161500 36017G23KT P6SM SCT250
     FM162100 07020G25KT P6SM OVC150=



000
FTUS44 KAMA 160300 AAA
TAFGUY
TAF AMD
KGUY 160322Z 1603/1624 18018KT P6SM SCT250
     FM161400 34019G25KT P6SM SCT250
     FM161900 03020G28KT P6SM OVC150=



000
FTUS44 KAMA 160300 AAA
TAFDHT
TAF AMD
KDHT 160321Z 1603/1624 18014KT P6SM SCT250
     FM161500 36017G23KT P6SM SCT250
     FM162100 07020G25KT P6SM OVC150=



    US Dept of Commerce
    National Oceanic and Atmospheric Administration
    National Weather Service
    1325 East West Highway
    Silver Spring, MD 20910
    Page Author: NWS Internet Services Team
Disclaimer
Information Quality
Credits
Glossary
Privacy Policy
Freedom of Information Act (FOIA)
About Us
Career Opportunities